x

Sheboygan, Wi (sgnw3) Weather Station

4:00pm - Wed 30th Jul 2014 All times are CDT. -5 hours from GMT.

  • Wind
    8mph
  • Air Temp 61°f
  • Sea Pressure 1016.6mb
  • Sheboygan, Wi
  • Sheboygan, Wi

More Historic Weather Station data

Upgrade to MSW Pro to gain access to the past 30 days of data for over 8000 Wavebouys and Weather Stations around the globe.

Join Pro

Comparision Forecast

View Surf forecast
   
Wed 07/30 4:00pm 8
mph
1016.6mb 61f
3:00pm 11 13 mph 1017mb 62f
2:00pm 8 9 mph 1017.3mb 62f
1:00pm 9
mph
1017.5mb 61f
12:00pm 3 5 mph 1018mb 60f
11:00am 7
mph
1017.9mb 59f
10:00am 10
mph
1017.8mb 58f
9:00am 14
mph
1017.6mb 60f
8:00am 11 15 mph 1017.4mb 60f
7:00am 13 14 mph 1016.7mb 60f
6:00am 11 13 mph 1016.5mb 61f
5:00am 6 7 mph 1016.1mb 59f
4:00am 9 10 mph 1015.4mb 61f
3:00am 10 13 mph 1015.2mb 61f
2:00am 11 14 mph 1015.2mb 62f
1:00am 13 16 mph 1015.4mb 62f
12:00am 13 16 mph 1015.4mb 63f
Tue 07/29 11:00pm 15 17 mph 1015.2mb 63f
10:00pm 14 17 mph 1015.2mb 63f
9:00pm 14 15 mph 1015mb 63f
8:00pm 14 16 mph 1015.2mb 63f
7:00pm 13 18 mph 1016.4mb 64f
6:00pm 3
mph
1015.7mb 61f
5:00pm 13 15 mph 1015.6mb 67f
4:00pm 14 17 mph 1014.7mb 76f
3:00pm 15 18 mph 1015.1mb 75f
2:00pm 3 6 mph 1015.6mb 70f
1:00pm 8 9 mph 1016mb 64f
12:00pm 6 7 mph 1016.2mb 68f
11:00am 7
mph
1016.7mb 67f
10:00am 6
mph
1016.7mb 66f
9:00am 9 10 mph 1016.7mb 65f
8:00am 9 10 mph 1016.7mb 63f
7:00am 11 14 mph 1016.4mb 62f
6:00am 10 11 mph 1016mb 62f
5:00am 11 14 mph 1015.7mb 64f
4:00am 8 10 mph 1015.7mb 64f
3:00am 11 14 mph 1015.9mb 65f
2:00am 10 13 mph 1016.1mb 63f
1:00am 6
mph
1016.8mb 60f
12:00am 7
mph
1017mb 59f
Mon 07/28 11:00pm 7
mph
1017.4mb 60f
10:00pm 7 8 mph 1017.8mb 60f
9:00pm 9
mph
1017.8mb 60f
8:00pm 6 7 mph 1017.9mb 60f
7:00pm 7 8 mph 1017.8mb 60f
6:00pm 5
mph
1018.2mb 59f
5:00pm  -  2 mph 1018.5mb 58f
4:00pm 3
mph
1018.9mb 58f
3:00pm 1 2 mph 1019.3mb 56f
2:00pm 8 9 mph 1019mb 56f
1:00pm 8 9 mph 1019.5mb 55f
12:00pm 7 8 mph 1019.6mb 56f
11:00am 11
mph
1019.3mb 55f
10:00am 10 11 mph 1019.3mb 55f
9:00am 13 14 mph 1019mb 54f
8:00am 16 18 mph 1018.2mb 55f
7:00am 16 20 mph 1017.6mb 55f
6:00am 17 18 mph 1016.6mb 56f
5:00am 20 22 mph 1015.8mb 58f
4:00am 17 22 mph 1015.1mb 59f
3:00am 17 18 mph 1014.7mb 59f
2:00am 21 25 mph 1014.5mb 60f
1:00am 22 24 mph 1014.2mb 58f
12:00am 20 21 mph 1013.7mb 58f
Sun 07/27 11:00pm 21 26 mph 1013.3mb 62f
10:00pm 17 21 mph 1012.7mb 64f
9:00pm 23 25 mph 1012.1mb 60f
8:00pm 20 22 mph 1010.8mb 60f
7:00pm 17 18 mph 1009.8mb 57f
6:00pm 11 14 mph 1008.5mb 58f
5:00pm 13 14 mph 1007.2mb 65f
4:00pm 20 22 mph 1007.3mb -
3:00pm 9 10 mph 1005.4mb 75f
2:00pm 11 14 mph 1005.5mb 71f
1:00pm 9
mph
1005.3mb 70f
12:00pm 9 11 mph 1004.7mb 78f
11:00am 16 20 mph 1005.1mb 78f
10:00am 13 14 mph 1005.2mb 77f
9:00am 10 13 mph 1005.4mb 76f
8:00am 13 15 mph 1005.8mb 73f
7:00am 14 16 mph 1006.2mb 72f
6:00am 10 11 mph 1005.9mb 72f
5:00am 9 10 mph 1006mb 72f
4:00am 6 7 mph 1006.3mb 69f
3:00am 6
mph
1007.4mb 70f
2:00am 8
mph
1007.7mb 71f
1:00am 3 5 mph 1008.1mb 71f
12:00am 10 11 mph 1008.2mb 75f
Sat 07/26 11:00pm 9 11 mph 1008.6mb 75f